sensor_id;sensor_type;location;lat;lon;timestamp;pressure;altitude;pressure_sealevel;temperature;humidity
74524;BME280;63074;44.696;10.358;2022-12-18T00:01:27;101192.59;;;6.44;100.00
74524;BME280;63074;44.696;10.358;2022-12-18T00:03:55;101194.25;;;6.46;100.00
74524;BME280;63074;44.696;10.358;2022-12-18T00:06:22;101184.22;;;6.48;100.00
74524;BME280;63074;44.696;10.358;2022-12-18T00:08:49;101181.56;;;6.48;100.00
74524;BME280;63074;44.696;10.358;2022-12-18T00:11:18;101184.41;;;6.46;100.00
74524;BME280;63074;44.696;10.358;2022-12-18T00:13:45;101182.94;;;6.43;100.00
74524;BME280;63074;44.696;10.358;2022-12-18T00:16:14;101197.41;;;6.49;100.00
74524;BME280;63074;44.696;10.358;2022-12-18T00:18:41;101196.94;;;6.46;100.00
74524;BME280;63074;44.696;10.358;2022-12-18T00:21:10;101207.13;;;6.42;100.00
74524;BME280;63074;44.696;10.358;2022-12-18T00:23:37;101210.00;;;6.40;100.00
74524;BME280;63074;44.696;10.358;2022-12-18T00:26:06;101205.25;;;6.51;100.00
74524;BME280;63074;44.696;10.358;2022-12-18T00:28:32;101209.28;;;6.47;100.00
74524;BME280;63074;44.696;10.358;2022-12-18T00:31:07;101207.44;;;6.47;100.00
74524;BME280;63074;44.696;10.358;2022-12-18T00:33:34;101204.75;;;6.47;100.00
74524;BME280;63074;44.696;10.358;2022-12-18T00:36:13;101206.66;;;6.38;100.00
74524;BME280;63074;44.696;10.358;2022-12-18T00:38:40;101208.69;;;6.36;100.00
74524;BME280;63074;44.696;10.358;2022-12-18T00:41:07;101210.75;;;6.49;100.00
74524;BME280;63074;44.696;10.358;2022-12-18T00:43:37;101219.97;;;6.47;100.00
74524;BME280;63074;44.696;10.358;2022-12-18T00:46:04;101215.09;;;6.50;100.00
74524;BME280;63074;44.696;10.358;2022-12-18T00:48:31;101209.28;;;6.47;100.00
74524;BME280;63074;44.696;10.358;2022-12-18T00:50:57;101204.13;;;6.45;100.00
74524;BME280;63074;44.696;10.358;2022-12-18T00:53:23;101207.13;;;6.42;100.00
74524;BME280;63074;44.696;10.358;2022-12-18T00:55:50;101204.31;;;6.21;100.00
74524;BME280;63074;44.696;10.358;2022-12-18T00:58:17;101203.56;;;6.35;100.00
74524;BME280;63074;44.696;10.358;2022-12-18T01:00:43;101206.22;;;6.35;100.00
74524;BME280;63074;44.696;10.358;2022-12-18T01:03:12;101213.00;;;6.37;100.00
74524;BME280;63074;44.696;10.358;2022-12-18T01:05:40;101214.50;;;6.40;100.00
74524;BME280;63074;44.696;10.358;2022-12-18T01:08:07;101212.66;;;6.40;100.00
74524;BME280;63074;44.696;10.358;2022-12-18T01:10:33;101205.31;;;6.42;100.00
74524;BME280;63074;44.696;10.358;2022-12-18T01:12:59;101215.31;;;6.40;100.00
74524;BME280;63074;44.696;10.358;2022-12-18T01:15:25;101219.13;;;6.46;100.00
74524;BME280;63074;44.696;10.358;2022-12-18T01:17:53;101220.44;;;6.50;100.00
74524;BME280;63074;44.696;10.358;2022-12-18T01:20:19;101223.75;;;6.52;100.00
74524;BME280;63074;44.696;10.358;2022-12-18T01:22:45;101221.09;;;6.52;100.00
74524;BME280;63074;44.696;10.358;2022-12-18T01:25:12;101219.41;;;6.51;100.00
74524;BME280;63074;44.696;10.358;2022-12-18T01:27:38;101220.50;;;6.42;100.00
74524;BME280;63074;44.696;10.358;2022-12-18T01:30:05;101223.63;;;6.46;100.00
74524;BME280;63074;44.696;10.358;2022-12-18T01:32:32;101234.97;;;6.48;100.00
74524;BME280;63074;44.696;10.358;2022-12-18T01:34:58;101240.66;;;6.44;100.00
74524;BME280;63074;44.696;10.358;2022-12-18T01:37:25;101248.50;;;6.46;100.00
74524;BME280;63074;44.696;10.358;2022-12-18T01:39:52;101247.66;;;6.46;100.00
74524;BME280;63074;44.696;10.358;2022-12-18T01:42:20;101256.03;;;6.42;100.00
74524;BME280;63074;44.696;10.358;2022-12-18T01:44:54;101247.50;;;6.47;100.00
74524;BME280;63074;44.696;10.358;2022-12-18T01:49:48;101263.00;;;6.29;100.00
74524;BME280;63074;44.696;10.358;2022-12-18T01:52:15;101263.34;;;6.26;100.00
74524;BME280;63074;44.696;10.358;2022-12-18T01:54:41;101268.91;;;6.16;100.00
74524;BME280;63074;44.696;10.358;2022-12-18T01:57:08;101278.38;;;5.88;100.00
74524;BME280;63074;44.696;10.358;2022-12-18T01:59:35;101284.59;;;6.11;100.00
74524;BME280;63074;44.696;10.358;2022-12-18T02:02:03;101283.91;;;6.17;100.00
74524;BME280;63074;44.696;10.358;2022-12-18T02:04:29;101281.72;;;6.21;100.00
74524;BME280;63074;44.696;10.358;2022-12-18T02:09:36;101300.75;;;6.18;100.00
74524;BME280;63074;44.696;10.358;2022-12-18T02:12:18;101311.56;;;6.24;100.00
74524;BME280;63074;44.696;10.358;2022-12-18T02:15:08;101311.91;;;6.21;100.00
74524;BME280;63074;44.696;10.358;2022-12-18T02:18:01;101309.44;;;6.20;100.00
74524;BME280;63074;44.696;10.358;2022-12-18T02:20:47;101324.91;;;6.24;100.00
74524;BME280;63074;44.696;10.358;2022-12-18T02:28:46;101333.09;;;6.23;100.00
74524;BME280;63074;44.696;10.358;2022-12-18T02:31:18;101332.16;;;6.07;100.00
74524;BME280;63074;44.696;10.358;2022-12-18T02:33:46;101332.75;;;6.26;100.00
74524;BME280;63074;44.696;10.358;2022-12-18T02:36:14;101330.91;;;6.26;100.00
74524;BME280;63074;44.696;10.358;2022-12-18T02:38:43;101330.91;;;6.26;100.00
74524;BME280;63074;44.696;10.358;2022-12-18T02:41:11;101329.28;;;6.17;100.00
74524;BME280;63074;44.696;10.358;2022-12-18T02:43:38;101327.09;;;6.21;100.00
74524;BME280;63074;44.696;10.358;2022-12-18T02:46:38;101329.59;;;6.22;100.00
74524;BME280;63074;44.696;10.358;2022-12-18T02:49:31;101326.28;;;6.20;100.00
74524;BME280;63074;44.696;10.358;2022-12-18T02:55:01;101317.94;;;6.15;100.00
74524;BME280;63074;44.696;10.358;2022-12-18T03:00:33;101311.91;;;6.21;100.00
74524;BME280;63074;44.696;10.358;2022-12-18T03:03:24;101310.56;;;6.25;100.00
74524;BME280;63074;44.696;10.358;2022-12-18T03:05:55;101318.22;;;6.28;100.00
74524;BME280;63074;44.696;10.358;2022-12-18T03:08:31;101311.03;;;6.29;100.00
74524;BME280;63074;44.696;10.358;2022-12-18T03:11:05;101326.31;;;6.12;100.00
74524;BME280;63074;44.696;10.358;2022-12-18T03:16:11;101328.09;;;5.89;100.00
74524;BME280;63074;44.696;10.358;2022-12-18T03:18:40;101334.41;;;5.96;100.00
74524;BME280;63074;44.696;10.358;2022-12-18T03:21:10;101344.56;;;6.00;100.00
74524;BME280;63074;44.696;10.358;2022-12-18T03:23:42;101349.72;;;6.02;100.00
74524;BME280;63074;44.696;10.358;2022-12-18T03:26:12;101350.75;;;5.93;100.00
74524;BME280;63074;44.696;10.358;2022-12-18T03:28:49;101350.72;;;6.01;100.00
74524;BME280;63074;44.696;10.358;2022-12-18T03:31:18;101349.56;;;6.03;100.00
74524;BME280;63074;44.696;10.358;2022-12-18T03:33:55;101355.06;;;6.02;100.00
74524;BME280;63074;44.696;10.358;2022-12-18T03:36:22;101353.06;;;6.04;100.00
74524;BME280;63074;44.696;10.358;2022-12-18T03:38:48;101355.59;;;5.97;100.00
74524;BME280;63074;44.696;10.358;2022-12-18T03:52:26;101352.69;;;5.60;100.00
74524;BME280;63074;44.696;10.358;2022-12-18T03:54:55;101364.19;;;5.60;100.00
74524;BME280;63074;44.696;10.358;2022-12-18T03:57:25;101372.41;;;5.34;100.00
74524;BME280;63074;44.696;10.358;2022-12-18T04:00:11;101388.19;;;5.60;100.00
74524;BME280;63074;44.696;10.358;2022-12-18T04:02:50;101389.84;;;5.61;100.00
74524;BME280;63074;44.696;10.358;2022-12-18T04:05:18;101383.34;;;5.56;100.00
74524;BME280;63074;44.696;10.358;2022-12-18T04:07:49;101395.34;;;5.60;100.00
74524;BME280;63074;44.696;10.358;2022-12-18T04:10:17;101389.34;;;5.58;100.00
74524;BME280;63074;44.696;10.358;2022-12-18T04:12:44;101393.19;;;5.55;100.00
74524;BME280;63074;44.696;10.358;2022-12-18T04:15:11;101398.34;;;5.57;100.00
74524;BME280;63074;44.696;10.358;2022-12-18T04:17:38;101402.00;;;5.56;100.00
74524;BME280;63074;44.696;10.358;2022-12-18T04:20:08;101407.19;;;5.49;100.00
74524;BME280;63074;44.696;10.358;2022-12-18T04:22:34;101401.34;;;5.54;100.00
74524;BME280;63074;44.696;10.358;2022-12-18T04:25:01;101404.72;;;5.48;100.00
74524;BME280;63074;44.696;10.358;2022-12-18T04:27:27;101408.53;;;5.53;100.00
74524;BME280;63074;44.696;10.358;2022-12-18T04:29:53;101415.06;;;5.34;100.00
74524;BME280;63074;44.696;10.358;2022-12-18T04:32:19;101414.72;;;5.21;100.00
74524;BME280;63074;44.696;10.358;2022-12-18T04:34:46;101424.38;;;5.22;100.00
74524;BME280;63074;44.696;10.358;2022-12-18T04:37:12;101429.88;;;5.21;100.00
74524;BME280;63074;44.696;10.358;2022-12-18T04:39:38;101432.41;;;5.14;100.00
74524;BME280;63074;44.696;10.358;2022-12-18T04:42:05;101437.06;;;5.12;100.00
74524;BME280;63074;44.696;10.358;2022-12-18T04:44:31;101433.22;;;5.06;100.00
74524;BME280;63074;44.696;10.358;2022-12-18T04:46:57;101438.22;;;5.09;100.00
74524;BME280;63074;44.696;10.358;2022-12-18T04:49:23;101433.69;;;4.94;100.00
74524;BME280;63074;44.696;10.358;2022-12-18T04:51:50;101440.69;;;5.03;100.00
74524;BME280;63074;44.696;10.358;2022-12-18T04:54:19;101446.00;;;4.95;100.00
74524;BME280;63074;44.696;10.358;2022-12-18T04:56:45;101445.88;;;5.04;100.00
74524;BME280;63074;44.696;10.358;2022-12-18T04:59:11;101448.84;;;5.01;100.00
74524;BME280;63074;44.696;10.358;2022-12-18T05:01:37;101450.69;;;5.01;100.00
74524;BME280;63074;44.696;10.358;2022-12-18T05:04:04;101464.34;;;4.90;100.00
74524;BME280;63074;44.696;10.358;2022-12-18T05:06:30;101459.50;;;4.85;100.00
74524;BME280;63074;44.696;10.358;2022-12-18T05:08:56;101460.69;;;4.91;100.00
74524;BME280;63074;44.696;10.358;2022-12-18T05:11:22;101467.16;;;4.96;100.00
74524;BME280;63074;44.696;10.358;2022-12-18T05:13:48;101466.84;;;5.07;100.00
74524;BME280;63074;44.696;10.358;2022-12-18T05:16:15;101462.66;;;4.97;100.00
74524;BME280;63074;44.696;10.358;2022-12-18T05:18:41;101465.16;;;4.98;100.00
74524;BME280;63074;44.696;10.358;2022-12-18T05:21:07;101476.00;;;4.97;100.00
74524;BME280;63074;44.696;10.358;2022-12-18T05:23:34;101483.47;;;4.93;100.00
74524;BME280;63074;44.696;10.358;2022-12-18T05:26:03;101490.16;;;5.05;100.00
74524;BME280;63074;44.696;10.358;2022-12-18T05:28:31;101479.34;;;4.91;100.00
74524;BME280;63074;44.696;10.358;2022-12-18T05:30:59;101483.84;;;5.06;100.00
74524;BME280;63074;44.696;10.358;2022-12-18T05:33:28;101485.66;;;4.98;100.00
74524;BME280;63074;44.696;10.358;2022-12-18T05:35:57;101496.50;;;5.21;100.00
74524;BME280;63074;44.696;10.358;2022-12-18T05:38:25;101498.00;;;5.15;100.00
74524;BME280;63074;44.696;10.358;2022-12-18T05:40:52;101494.50;;;5.06;100.00
74524;BME280;63074;44.696;10.358;2022-12-18T05:43:20;101501.50;;;5.24;100.00
74524;BME280;63074;44.696;10.358;2022-12-18T05:45:50;101515.50;;;5.34;100.00
74524;BME280;63074;44.696;10.358;2022-12-18T05:48:17;101518.53;;;5.39;100.00
74524;BME280;63074;44.696;10.358;2022-12-18T05:50:45;101515.19;;;5.37;100.00
74524;BME280;63074;44.696;10.358;2022-12-18T05:53:13;101522.69;;;5.41;100.00
74524;BME280;63074;44.696;10.358;2022-12-18T05:55:41;101513.53;;;5.44;100.00
74524;BME280;63074;44.696;10.358;2022-12-18T05:58:08;101502.88;;;5.44;100.00
74524;BME280;63074;44.696;10.358;2022-12-18T06:00:37;101506.84;;;5.32;100.00
74524;BME280;63074;44.696;10.358;2022-12-18T06:03:07;101515.19;;;5.37;100.00
74524;BME280;63074;44.696;10.358;2022-12-18T06:05:39;101525.84;;;5.37;100.00
74524;BME280;63074;44.696;10.358;2022-12-18T06:08:06;101531.84;;;5.39;100.00
74524;BME280;63074;44.696;10.358;2022-12-18T06:10:32;101524.34;;;5.42;100.00
74524;BME280;63074;44.696;10.358;2022-12-18T06:12:59;101531.69;;;5.40;100.00
74524;BME280;63074;44.696;10.358;2022-12-18T06:15:25;101529.00;;;5.32;100.00
74524;BME280;63074;44.696;10.358;2022-12-18T06:17:51;101541.19;;;5.43;100.00
74524;BME280;63074;44.696;10.358;2022-12-18T06:20:18;101551.19;;;5.41;100.00
74524;BME280;63074;44.696;10.358;2022-12-18T06:22:44;101547.34;;;5.43;100.00
74524;BME280;63074;44.696;10.358;2022-12-18T06:25:11;101551.50;;;5.38;100.00
74524;BME280;63074;44.696;10.358;2022-12-18T06:27:37;101555.16;;;5.29;100.00
74524;BME280;63074;44.696;10.358;2022-12-18T06:30:04;101559.94;;;5.09;100.00
74524;BME280;63074;44.696;10.358;2022-12-18T06:32:30;101559.47;;;5.14;100.00
74524;BME280;63074;44.696;10.358;2022-12-18T06:34:56;101563.81;;;5.15;100.00
74524;BME280;63074;44.696;10.358;2022-12-18T06:37:23;101570.94;;;5.06;100.00
74524;BME280;63074;44.696;10.358;2022-12-18T06:39:53;101579.13;;;5.13;100.00
74524;BME280;63074;44.696;10.358;2022-12-18T06:42:23;101580.25;;;5.02;100.00
74524;BME280;63074;44.696;10.358;2022-12-18T06:44:49;101590.38;;;4.90;100.00
74524;BME280;63074;44.696;10.358;2022-12-18T06:47:15;101594.34;;;4.94;100.00
74524;BME280;63074;44.696;10.358;2022-12-18T06:49:42;101594.34;;;4.94;100.00
74524;BME280;63074;44.696;10.358;2022-12-18T06:52:08;101602.06;;;5.05;100.00
74524;BME280;63074;44.696;10.358;2022-12-18T06:54:35;101604.38;;;5.00;100.00
74524;BME280;63074;44.696;10.358;2022-12-18T06:57:01;101601.56;;;5.02;100.00
74524;BME280;63074;44.696;10.358;2022-12-18T06:59:27;101611.69;;;4.98;100.00
74524;BME280;63074;44.696;10.358;2022-12-18T07:01:53;101615.16;;;4.83;100.00
74524;BME280;63074;44.696;10.358;2022-12-18T07:04:20;101614.72;;;4.69;100.00
74524;BME280;63074;44.696;10.358;2022-12-18T07:06:46;101623.44;;;4.80;100.00
74524;BME280;63074;44.696;10.358;2022-12-18T07:09:12;101627.47;;;4.84;100.00
74524;BME280;63074;44.696;10.358;2022-12-18T07:11:38;101631.81;;;4.85;100.00
74524;BME280;63074;44.696;10.358;2022-12-18T07:14:05;101624.81;;;4.84;100.00
74524;BME280;63074;44.696;10.358;2022-12-18T07:16:31;101624.66;;;4.85;100.00
74524;BME280;63074;44.696;10.358;2022-12-18T07:18:57;101631.03;;;4.66;100.00
74524;BME280;63074;44.696;10.358;2022-12-18T07:21:24;101622.94;;;4.76;100.00
74524;BME280;63074;44.696;10.358;2022-12-18T07:23:51;101632.66;;;4.93;100.00
74524;BME280;63074;44.696;10.358;2022-12-18T07:26:19;101634.78;;;4.82;100.00
74524;BME280;63074;44.696;10.358;2022-12-18T07:28:46;101640.69;;;4.67;100.00
74524;BME280;63074;44.696;10.358;2022-12-18T07:31:18;101640.25;;;4.80;100.00
74524;BME280;63074;44.696;10.358;2022-12-18T07:33:45;101640.25;;;4.80;100.00
74524;BME280;63074;44.696;10.358;2022-12-18T07:36:12;101642.28;;;4.86;100.00
74524;BME280;63074;44.696;10.358;2022-12-18T07:38:38;101650.63;;;4.91;100.00
74524;BME280;63074;44.696;10.358;2022-12-18T07:41:12;101655.94;;;4.83;100.00
74524;BME280;63074;44.696;10.358;2022-12-18T07:43:40;101650.97;;;4.96;100.00
74524;BME280;63074;44.696;10.358;2022-12-18T07:46:07;101657.81;;;4.99;100.00
74524;BME280;63074;44.696;10.358;2022-12-18T07:48:34;101661.53;;;5.06;100.00
74524;BME280;63074;44.696;10.358;2022-12-18T07:51:05;101663.50;;;5.04;100.00
74524;BME280;63074;44.696;10.358;2022-12-18T07:53:32;101667.09;;;4.87;100.00
74524;BME280;63074;44.696;10.358;2022-12-18T07:56:02;101673.19;;;5.05;100.00
74524;BME280;63074;44.696;10.358;2022-12-18T07:58:29;101682.69;;;5.07;100.00
74524;BME280;63074;44.696;10.358;2022-12-18T08:01:06;101678.56;;;5.13;100.00
74524;BME280;63074;44.696;10.358;2022-12-18T08:03:33;101676.72;;;5.14;100.00
74524;BME280;63074;44.696;10.358;2022-12-18T08:06:01;101691.56;;;5.16;100.00
74524;BME280;63074;44.696;10.358;2022-12-18T08:08:28;101696.06;;;5.24;100.00
74524;BME280;63074;44.696;10.358;2022-12-18T08:10:54;101689.94;;;5.31;100.00
74524;BME280;63074;44.696;10.358;2022-12-18T08:13:20;101688.09;;;5.32;100.00
74524;BME280;63074;44.696;10.358;2022-12-18T08:15:55;101701.72;;;5.21;100.00
74524;BME280;63074;44.696;10.358;2022-12-18T08:18:21;101708.25;;;5.26;100.00
74524;BME280;63074;44.696;10.358;2022-12-18T08:20:47;101710.25;;;5.32;100.00
74524;BME280;63074;44.696;10.358;2022-12-18T08:23:13;101721.56;;;5.26;100.00
74524;BME280;63074;44.696;10.358;2022-12-18T08:25:39;101727.72;;;5.27;100.00
74524;BME280;63074;44.696;10.358;2022-12-18T08:28:06;101728.41;;;5.29;100.00
74524;BME280;63074;44.696;10.358;2022-12-18T08:30:32;101731.78;;;5.39;100.00
74524;BME280;63074;44.696;10.358;2022-12-18T08:32:58;101738.38;;;5.27;100.00
74524;BME280;63074;44.696;10.358;2022-12-18T08:35:24;101736.19;;;5.22;100.00
74524;BME280;63074;44.696;10.358;2022-12-18T08:37:50;101738.53;;;5.17;100.00
74524;BME280;63074;44.696;10.358;2022-12-18T08:40:16;101751.03;;;5.17;100.00
74524;BME280;63074;44.696;10.358;2022-12-18T08:42:43;101762.69;;;5.16;100.00
74524;BME280;63074;44.696;10.358;2022-12-18T08:45:44;101756.19;;;5.18;100.00
74524;BME280;63074;44.696;10.358;2022-12-18T08:48:10;101758.69;;;5.20;100.00
74524;BME280;63074;44.696;10.358;2022-12-18T08:50:37;101761.84;;;5.15;100.00
74524;BME280;63074;44.696;10.358;2022-12-18T08:53:03;101768.47;;;5.11;100.00
74524;BME280;63074;44.696;10.358;2022-12-18T08:55:29;101769.16;;;5.13;100.00
74524;BME280;63074;44.696;10.358;2022-12-18T08:57:55;101777.13;;;4.61;100.00
74524;BME280;63074;44.696;10.358;2022-12-18T09:00:21;101781.06;;;4.75;100.00
74524;BME280;63074;44.696;10.358;2022-12-18T09:02:48;101787.50;;;4.90;100.00
74524;BME280;63074;44.696;10.358;2022-12-18T09:05:14;101783.66;;;4.67;100.00
74524;BME280;63074;44.696;10.358;2022-12-18T09:07:40;101792.69;;;4.74;100.00
74524;BME280;63074;44.696;10.358;2022-12-18T09:10:07;101793.06;;;5.31;100.00
74524;BME280;63074;44.696;10.358;2022-12-18T09:12:33;101789.03;;;4.75;100.00
74524;BME280;63074;44.696;10.358;2022-12-18T09:14:59;101798.59;;;4.60;100.00
74524;BME280;63074;44.696;10.358;2022-12-18T09:17:26;101787.13;;;5.11;100.00
74524;BME280;63074;44.696;10.358;2022-12-18T09:19:52;101799.72;;;5.01;100.00
74524;BME280;63074;44.696;10.358;2022-12-18T09:22:18;101787.28;;;5.09;100.00
74524;BME280;63074;44.696;10.358;2022-12-18T09:24:44;101793.13;;;5.13;100.00
74524;BME280;63074;44.696;10.358;2022-12-18T09:27:10;101787.34;;;5.18;100.00
74524;BME280;63074;44.696;10.358;2022-12-18T09:29:36;101790.56;;;5.29;100.00
74524;BME280;63074;44.696;10.358;2022-12-18T09:32:03;101791.50;;;5.54;100.00
74524;BME280;63074;44.696;10.358;2022-12-18T09:34:29;101780.19;;;5.60;100.00
74524;BME280;63074;44.696;10.358;2022-12-18T09:36:55;101778.53;;;5.59;100.00
74524;BME280;63074;44.696;10.358;2022-12-18T09:39:21;101775.94;;;5.75;100.00
74524;BME280;63074;44.696;10.358;2022-12-18T09:41:52;101769.41;;;5.78;100.00
74524;BME280;63074;44.696;10.358;2022-12-18T09:44:23;101769.94;;;5.39;100.00
74524;BME280;63074;44.696;10.358;2022-12-18T09:49:28;101770.94;;;5.38;100.00
74524;BME280;63074;44.696;10.358;2022-12-18T09:52:25;101764.84;;;5.54;100.00
74524;BME280;63074;44.696;10.358;2022-12-18T09:55:00;101768.91;;;5.74;100.00
74524;BME280;63074;44.696;10.358;2022-12-18T09:57:31;101755.16;;;5.95;100.00
74524;BME280;63074;44.696;10.358;2022-12-18T10:02:35;101751.66;;;5.95;100.00
74524;BME280;63074;44.696;10.358;2022-12-18T10:05:11;101745.91;;;5.82;100.00
74524;BME280;63074;44.696;10.358;2022-12-18T10:07:55;101755.31;;;5.94;100.00
74524;BME280;63074;44.696;10.358;2022-12-18T10:10:53;101754.16;;;5.96;100.00
74524;BME280;63074;44.696;10.358;2022-12-18T10:13:23;101752.31;;;5.89;100.00
74524;BME280;63074;44.696;10.358;2022-12-18T10:16:16;101753.66;;;6.09;100.00
74524;BME280;63074;44.696;10.358;2022-12-18T10:24:29;101756.34;;;6.17;100.00
74524;BME280;63074;44.696;10.358;2022-12-18T10:27:17;101749.84;;;6.03;100.00
74524;BME280;63074;44.696;10.358;2022-12-18T10:29:44;101751.66;;;6.11;100.00
74524;BME280;63074;44.696;10.358;2022-12-18T10:32:20;101741.84;;;6.20;100.00
74524;BME280;63074;44.696;10.358;2022-12-18T10:34:48;101751.16;;;6.07;100.00
74524;BME280;63074;44.696;10.358;2022-12-18T10:37:20;101749.34;;;6.16;100.00
74524;BME280;63074;44.696;10.358;2022-12-18T10:42:33;101753.84;;;5.99;100.00
74524;BME280;63074;44.696;10.358;2022-12-18T10:45:12;101748.66;;;6.14;100.00
74524;BME280;63074;44.696;10.358;2022-12-18T10:47:51;101752.34;;;6.05;100.00
74524;BME280;63074;44.696;10.358;2022-12-18T10:50:34;101740.03;;;6.28;100.00
74524;BME280;63074;44.696;10.358;2022-12-18T10:53:04;101742.50;;;6.46;100.00
74524;BME280;63074;44.696;10.358;2022-12-18T10:55:39;101750.88;;;6.51;100.00
74524;BME280;63074;44.696;10.358;2022-12-18T11:06:17;101751.38;;;6.30;100.00
74524;BME280;63074;44.696;10.358;2022-12-18T11:08:57;101747.19;;;6.36;100.00
74524;BME280;63074;44.696;10.358;2022-12-18T11:11:24;101748.34;;;6.41;100.00
74524;BME280;63074;44.696;10.358;2022-12-18T11:14:15;101744.69;;;6.42;100.00
74524;BME280;63074;44.696;10.358;2022-12-18T11:16:47;101753.84;;;6.16;100.00
74524;BME280;63074;44.696;10.358;2022-12-18T11:19:36;101761.03;;;6.15;100.00
74524;BME280;63074;44.696;10.358;2022-12-18T11:22:27;101768.53;;;6.12;100.00
74524;BME280;63074;44.696;10.358;2022-12-18T11:24:55;101753.34;;;6.20;100.00
74524;BME280;63074;44.696;10.358;2022-12-18T11:27:22;101753.03;;;6.48;100.00
74524;BME280;63074;44.696;10.358;2022-12-18T11:29:50;101750.72;;;6.61;100.00
74524;BME280;63074;44.696;10.358;2022-12-18T11:37:32;101733.47;;;6.80;100.00
74524;BME280;63074;44.696;10.358;2022-12-18T11:40:11;101726.63;;;6.77;100.00
74524;BME280;63074;44.696;10.358;2022-12-18T11:45:28;101726.34;;;6.64;100.00
74524;BME280;63074;44.696;10.358;2022-12-18T11:48:32;101727.16;;;6.56;100.00
74524;BME280;63074;44.696;10.358;2022-12-18T11:51:01;101723.97;;;6.69;100.00
74524;BME280;63074;44.696;10.358;2022-12-18T11:53:30;101727.34;;;6.55;100.00
74524;BME280;63074;44.696;10.358;2022-12-18T11:58:58;101749.38;;;6.32;100.00
74524;BME280;63074;44.696;10.358;2022-12-18T12:04:30;101727.50;;;6.53;100.00
74524;BME280;63074;44.696;10.358;2022-12-18T12:10:20;101732.66;;;6.55;100.00
74524;BME280;63074;44.696;10.358;2022-12-18T12:16:15;101743.34;;;6.63;100.00
74524;BME280;63074;44.696;10.358;2022-12-18T12:18:51;101739.84;;;6.54;100.00
74524;BME280;63074;44.696;10.358;2022-12-18T12:26:35;101731.16;;;6.20;100.00
74524;BME280;63074;44.696;10.358;2022-12-18T12:29:45;101736.34;;;6.21;100.00
74524;BME280;63074;44.696;10.358;2022-12-18T12:38:06;101725.50;;;6.55;100.00
74524;BME280;63074;44.696;10.358;2022-12-18T12:40:41;101720.13;;;6.71;100.00
74524;BME280;63074;44.696;10.358;2022-12-18T12:45:55;101707.44;;;6.73;100.00
74524;BME280;63074;44.696;10.358;2022-12-18T12:53:47;101713.59;;;6.90;100.00
74524;BME280;63074;44.696;10.358;2022-12-18T12:56:17;101712.53;;;6.99;100.00
74524;BME280;63074;44.696;10.358;2022-12-18T12:58:56;101711.31;;;6.63;100.00
74524;BME280;63074;44.696;10.358;2022-12-18T13:04:37;101706.78;;;6.39;100.00
74524;BME280;63074;44.696;10.358;2022-12-18T13:07:26;101706.75;;;6.71;100.00
74524;BME280;63074;44.696;10.358;2022-12-18T13:13:11;101703.47;;;6.45;100.00
74524;BME280;63074;44.696;10.358;2022-12-18T13:18:22;101696.97;;;6.31;100.00
74524;BME280;63074;44.696;10.358;2022-12-18T13:26:28;101703.31;;;6.30;100.00
74524;BME280;63074;44.696;10.358;2022-12-18T13:28:50;101694.78;;;6.43;100.00
74524;BME280;63074;44.696;10.358;2022-12-18T13:34:24;101692.72;;;6.77;100.00
74524;BME280;63074;44.696;10.358;2022-12-18T13:36:54;101697.25;;;6.77;100.00
74524;BME280;63074;44.696;10.358;2022-12-18T13:39:32;101695.75;;;6.66;100.00
74524;BME280;63074;44.696;10.358;2022-12-18T13:44:38;101699.13;;;6.60;100.00
74524;BME280;63074;44.696;10.358;2022-12-18T13:47:27;101702.28;;;6.56;100.00
74524;BME280;63074;44.696;10.358;2022-12-18T13:49:57;101709.31;;;6.49;100.00
74524;BME280;63074;44.696;10.358;2022-12-18T13:52:36;101701.06;;;6.83;100.00
74524;BME280;63074;44.696;10.358;2022-12-18T13:55:07;101706.06;;;6.86;100.00
74524;BME280;63074;44.696;10.358;2022-12-18T13:57:40;101704.25;;;6.86;100.00
74524;BME280;63074;44.696;10.358;2022-12-18T14:00:28;101701.25;;;6.73;100.00
74524;BME280;63074;44.696;10.358;2022-12-18T14:02:57;101698.41;;;6.74;100.00
74524;BME280;63074;44.696;10.358;2022-12-18T14:05:35;101701.47;;;6.63;100.00
74524;BME280;63074;44.696;10.358;2022-12-18T14:08:07;101704.44;;;6.68;100.00
74524;BME280;63074;44.696;10.358;2022-12-18T14:10:39;101704.09;;;6.71;100.00
74524;BME280;63074;44.696;10.358;2022-12-18T14:13:08;101704.09;;;6.71;100.00
74524;BME280;63074;44.696;10.358;2022-12-18T14:15:43;101711.97;;;6.49;100.00
74524;BME280;63074;44.696;10.358;2022-12-18T14:20:59;101705.25;;;6.69;100.00
74524;BME280;63074;44.696;10.358;2022-12-18T14:23:40;101703.97;;;6.49;100.00
74524;BME280;63074;44.696;10.358;2022-12-18T14:26:25;101694.28;;;6.56;100.00
74524;BME280;63074;44.696;10.358;2022-12-18T14:29:10;101697.75;;;6.72;100.00
74524;BME280;63074;44.696;10.358;2022-12-18T14:31:43;101698.41;;;6.74;100.00
74524;BME280;63074;44.696;10.358;2022-12-18T14:34:16;101693.78;;;6.60;100.00
74524;BME280;63074;44.696;10.358;2022-12-18T14:36:52;101692.06;;;6.67;100.00
74524;BME280;63074;44.696;10.358;2022-12-18T14:39:20;101698.94;;;6.46;100.00
74524;BME280;63074;44.696;10.358;2022-12-18T14:41:49;101698.47;;;6.26;100.00
74524;BME280;63074;44.696;10.358;2022-12-18T14:44:15;101704.47;;;6.52;100.00
74524;BME280;63074;44.696;10.358;2022-12-18T14:46:46;101702.47;;;6.62;100.00
74524;BME280;63074;44.696;10.358;2022-12-18T14:49:33;101697.94;;;6.47;100.00
74524;BME280;63074;44.696;10.358;2022-12-18T14:52:05;101699.78;;;6.54;100.00